sensor_id;sensor_type;location;lat;lon;timestamp;P1;durP1;ratioP1;P2;durP2;ratioP2
70420;SDS011;57848;51.938;15.520;2023-02-28T00:00:07;24.10;;;7.83;;
70420;SDS011;57848;51.938;15.520;2023-02-28T00:02:37;19.90;;;6.57;;
70420;SDS011;57848;51.938;15.520;2023-02-28T00:05:03;20.05;;;7.30;;
70420;SDS011;57848;51.938;15.520;2023-02-28T00:07:29;18.65;;;6.63;;
70420;SDS011;57848;51.938;15.520;2023-02-28T00:10:02;13.45;;;4.80;;
70420;SDS011;57848;51.938;15.520;2023-02-28T00:12:31;11.67;;;4.77;;
70420;SDS011;57848;51.938;15.520;2023-02-28T00:14:57;13.13;;;4.22;;
70420;SDS011;57848;51.938;15.520;2023-02-28T00:17:22;12.27;;;4.23;;
70420;SDS011;57848;51.938;15.520;2023-02-28T00:19:48;11.27;;;4.25;;
70420;SDS011;57848;51.938;15.520;2023-02-28T00:22:18;11.93;;;3.75;;
70420;SDS011;57848;51.938;15.520;2023-02-28T00:24:45;11.68;;;4.25;;
70420;SDS011;57848;51.938;15.520;2023-02-28T00:27:12;19.02;;;4.82;;
70420;SDS011;57848;51.938;15.520;2023-02-28T00:29:38;14.43;;;4.90;;
70420;SDS011;57848;51.938;15.520;2023-02-28T00:32:03;15.90;;;5.47;;
70420;SDS011;57848;51.938;15.520;2023-02-28T00:34:30;11.90;;;4.07;;
70420;SDS011;57848;51.938;15.520;2023-02-28T00:36:55;12.43;;;4.15;;
70420;SDS011;57848;51.938;15.520;2023-02-28T00:39:21;11.93;;;4.03;;
70420;SDS011;57848;51.938;15.520;2023-02-28T00:41:47;16.70;;;5.72;;
70420;SDS011;57848;51.938;15.520;2023-02-28T00:44:13;15.90;;;5.97;;
70420;SDS011;57848;51.938;15.520;2023-02-28T00:46:38;20.65;;;6.28;;
70420;SDS011;57848;51.938;15.520;2023-02-28T00:49:03;16.73;;;6.73;;
70420;SDS011;57848;51.938;15.520;2023-02-28T00:51:29;18.40;;;6.30;;
70420;SDS011;57848;51.938;15.520;2023-02-28T00:53:56;19.58;;;6.35;;
70420;SDS011;57848;51.938;15.520;2023-02-28T00:56:22;19.23;;;6.68;;
70420;SDS011;57848;51.938;15.520;2023-02-28T00:58:48;19.80;;;6.70;;
70420;SDS011;57848;51.938;15.520;2023-02-28T01:01:13;20.70;;;6.27;;
70420;SDS011;57848;51.938;15.520;2023-02-28T01:03:38;18.37;;;6.30;;
70420;SDS011;57848;51.938;15.520;2023-02-28T01:06:04;23.17;;;7.83;;
70420;SDS011;57848;51.938;15.520;2023-02-28T01:08:30;23.30;;;7.72;;
70420;SDS011;57848;51.938;15.520;2023-02-28T01:10:55;18.88;;;6.93;;
70420;SDS011;57848;51.938;15.520;2023-02-28T01:13:21;23.17;;;7.63;;
70420;SDS011;57848;51.938;15.520;2023-02-28T01:15:51;20.88;;;7.60;;
70420;SDS011;57848;51.938;15.520;2023-02-28T01:18:19;21.30;;;7.45;;
70420;SDS011;57848;51.938;15.520;2023-02-28T01:20:46;21.70;;;7.32;;
70420;SDS011;57848;51.938;15.520;2023-02-28T01:23:11;21.87;;;8.27;;
70420;SDS011;57848;51.938;15.520;2023-02-28T01:25:37;21.90;;;7.97;;
70420;SDS011;57848;51.938;15.520;2023-02-28T01:28:03;20.83;;;7.45;;
70420;SDS011;57848;51.938;15.520;2023-02-28T01:30:30;24.85;;;8.40;;
70420;SDS011;57848;51.938;15.520;2023-02-28T01:32:56;19.42;;;7.65;;
70420;SDS011;57848;51.938;15.520;2023-02-28T01:35:21;21.50;;;7.57;;
70420;SDS011;57848;51.938;15.520;2023-02-28T01:37:46;21.07;;;7.80;;
70420;SDS011;57848;51.938;15.520;2023-02-28T01:40:12;26.03;;;8.30;;
70420;SDS011;57848;51.938;15.520;2023-02-28T01:42:38;23.25;;;8.48;;
70420;SDS011;57848;51.938;15.520;2023-02-28T01:47:34;24.95;;;8.60;;
70420;SDS011;57848;51.938;15.520;2023-02-28T01:50:03;23.85;;;9.23;;
70420;SDS011;57848;51.938;15.520;2023-02-28T01:52:32;25.97;;;9.27;;
70420;SDS011;57848;51.938;15.520;2023-02-28T01:54:59;24.70;;;9.48;;
70420;SDS011;57848;51.938;15.520;2023-02-28T01:57:30;24.20;;;9.43;;
70420;SDS011;57848;51.938;15.520;2023-02-28T02:00:12;26.15;;;9.40;;
70420;SDS011;57848;51.938;15.520;2023-02-28T02:02:45;25.65;;;10.60;;
70420;SDS011;57848;51.938;15.520;2023-02-28T02:05:15;30.70;;;10.50;;
70420;SDS011;57848;51.938;15.520;2023-02-28T02:07:43;29.33;;;10.95;;
70420;SDS011;57848;51.938;15.520;2023-02-28T02:10:19;26.83;;;10.93;;
70420;SDS011;57848;51.938;15.520;2023-02-28T02:15:43;30.20;;;11.57;;
70420;SDS011;57848;51.938;15.520;2023-02-28T02:18:39;28.33;;;10.47;;
70420;SDS011;57848;51.938;15.520;2023-02-28T02:24:36;27.48;;;11.30;;
70420;SDS011;57848;51.938;15.520;2023-02-28T02:27:42;28.33;;;10.48;;
70420;SDS011;57848;51.938;15.520;2023-02-28T02:36:18;25.52;;;10.13;;
70420;SDS011;57848;51.938;15.520;2023-02-28T02:41:40;26.73;;;10.25;;
70420;SDS011;57848;51.938;15.520;2023-02-28T02:44:27;24.90;;;9.88;;
70420;SDS011;57848;51.938;15.520;2023-02-28T02:47:02;22.97;;;8.37;;
70420;SDS011;57848;51.938;15.520;2023-02-28T02:49:33;21.48;;;8.57;;
70420;SDS011;57848;51.938;15.520;2023-02-28T02:52:05;26.85;;;10.40;;
70420;SDS011;57848;51.938;15.520;2023-02-28T02:54:35;31.30;;;9.07;;
70420;SDS011;57848;51.938;15.520;2023-02-28T02:57:05;25.05;;;9.35;;
70420;SDS011;57848;51.938;15.520;2023-02-28T02:59:33;25.03;;;9.03;;
70420;SDS011;57848;51.938;15.520;2023-02-28T03:02:03;28.08;;;9.35;;
70420;SDS011;57848;51.938;15.520;2023-02-28T03:04:32;22.63;;;8.82;;
70420;SDS011;57848;51.938;15.520;2023-02-28T03:07:03;22.25;;;9.32;;
70420;SDS011;57848;51.938;15.520;2023-02-28T03:09:28;25.43;;;9.40;;
70420;SDS011;57848;51.938;15.520;2023-02-28T03:11:55;22.48;;;9.43;;
70420;SDS011;57848;51.938;15.520;2023-02-28T03:25:37;27.70;;;9.15;;
70420;SDS011;57848;51.938;15.520;2023-02-28T03:31:03;27.93;;;9.10;;
70420;SDS011;57848;51.938;15.520;2023-02-28T03:36:08;27.38;;;9.65;;
70420;SDS011;57848;51.938;15.520;2023-02-28T03:38:40;24.13;;;9.48;;
70420;SDS011;57848;51.938;15.520;2023-02-28T03:41:16;25.70;;;10.35;;
70420;SDS011;57848;51.938;15.520;2023-02-28T03:43:48;33.50;;;9.80;;
70420;SDS011;57848;51.938;15.520;2023-02-28T03:46:28;24.95;;;9.07;;
70420;SDS011;57848;51.938;15.520;2023-02-28T03:48:59;27.30;;;9.55;;
70420;SDS011;57848;51.938;15.520;2023-02-28T03:51:29;22.20;;;8.93;;
70420;SDS011;57848;51.938;15.520;2023-02-28T03:53:58;24.25;;;9.73;;
70420;SDS011;57848;51.938;15.520;2023-02-28T03:56:37;25.97;;;9.83;;
70420;SDS011;57848;51.938;15.520;2023-02-28T03:59:17;27.00;;;9.45;;
70420;SDS011;57848;51.938;15.520;2023-02-28T04:01:49;23.85;;;9.43;;
70420;SDS011;57848;51.938;15.520;2023-02-28T04:04:15;29.15;;;9.50;;
70420;SDS011;57848;51.938;15.520;2023-02-28T04:06:41;23.27;;;8.95;;
70420;SDS011;57848;51.938;15.520;2023-02-28T04:09:09;23.83;;;9.00;;
70420;SDS011;57848;51.938;15.520;2023-02-28T04:11:37;23.48;;;9.70;;
70420;SDS011;57848;51.938;15.520;2023-02-28T04:14:06;25.60;;;9.57;;
70420;SDS011;57848;51.938;15.520;2023-02-28T04:16:33;26.45;;;9.38;;
70420;SDS011;57848;51.938;15.520;2023-02-28T04:19:00;29.75;;;10.10;;
70420;SDS011;57848;51.938;15.520;2023-02-28T04:21:34;22.67;;;9.03;;
70420;SDS011;57848;51.938;15.520;2023-02-28T04:24:02;29.48;;;9.98;;
70420;SDS011;57848;51.938;15.520;2023-02-28T04:26:31;31.02;;;10.95;;
70420;SDS011;57848;51.938;15.520;2023-02-28T04:29:02;30.73;;;10.55;;
70420;SDS011;57848;51.938;15.520;2023-02-28T04:31:28;25.63;;;9.98;;
70420;SDS011;57848;51.938;15.520;2023-02-28T04:33:54;26.13;;;10.60;;
70420;SDS011;57848;51.938;15.520;2023-02-28T04:36:19;31.17;;;10.80;;
70420;SDS011;57848;51.938;15.520;2023-02-28T04:38:45;26.80;;;10.83;;
70420;SDS011;57848;51.938;15.520;2023-02-28T04:41:11;33.50;;;11.93;;
70420;SDS011;57848;51.938;15.520;2023-02-28T04:43:37;27.42;;;10.65;;
70420;SDS011;57848;51.938;15.520;2023-02-28T04:46:03;25.73;;;10.33;;
70420;SDS011;57848;51.938;15.520;2023-02-28T04:48:31;24.50;;;9.50;;
70420;SDS011;57848;51.938;15.520;2023-02-28T04:51:05;25.55;;;10.15;;
70420;SDS011;57848;51.938;15.520;2023-02-28T04:53:33;24.85;;;11.00;;
70420;SDS011;57848;51.938;15.520;2023-02-28T04:55:59;26.93;;;10.70;;
70420;SDS011;57848;51.938;15.520;2023-02-28T04:58:24;35.00;;;12.20;;
70420;SDS011;57848;51.938;15.520;2023-02-28T05:00:50;29.63;;;11.50;;
70420;SDS011;57848;51.938;15.520;2023-02-28T05:03:19;29.95;;;12.13;;
70420;SDS011;57848;51.938;15.520;2023-02-28T05:05:46;32.90;;;12.52;;
70420;SDS011;57848;51.938;15.520;2023-02-28T05:08:11;34.27;;;11.57;;
70420;SDS011;57848;51.938;15.520;2023-02-28T05:10:37;28.25;;;11.80;;
70420;SDS011;57848;51.938;15.520;2023-02-28T05:13:02;26.50;;;10.23;;
70420;SDS011;57848;51.938;15.520;2023-02-28T05:15:28;31.27;;;11.67;;
70420;SDS011;57848;51.938;15.520;2023-02-28T05:17:53;31.27;;;10.27;;
70420;SDS011;57848;51.938;15.520;2023-02-28T05:20:19;29.52;;;11.00;;
70420;SDS011;57848;51.938;15.520;2023-02-28T05:22:46;29.05;;;11.38;;
70420;SDS011;57848;51.938;15.520;2023-02-28T05:25:12;26.10;;;10.97;;
70420;SDS011;57848;51.938;15.520;2023-02-28T05:27:42;26.20;;;11.75;;
70420;SDS011;57848;51.938;15.520;2023-02-28T05:30:07;29.90;;;10.67;;
70420;SDS011;57848;51.938;15.520;2023-02-28T05:32:38;29.40;;;11.05;;
70420;SDS011;57848;51.938;15.520;2023-02-28T05:35:08;30.25;;;11.95;;
70420;SDS011;57848;51.938;15.520;2023-02-28T05:37:35;27.67;;;11.95;;
70420;SDS011;57848;51.938;15.520;2023-02-28T05:40:01;27.70;;;11.53;;
70420;SDS011;57848;51.938;15.520;2023-02-28T05:42:27;26.88;;;10.85;;
70420;SDS011;57848;51.938;15.520;2023-02-28T05:44:52;27.83;;;11.80;;
70420;SDS011;57848;51.938;15.520;2023-02-28T05:47:17;29.57;;;10.70;;
70420;SDS011;57848;51.938;15.520;2023-02-28T05:49:43;24.33;;;10.18;;
70420;SDS011;57848;51.938;15.520;2023-02-28T05:52:08;31.40;;;11.30;;
70420;SDS011;57848;51.938;15.520;2023-02-28T05:54:33;27.07;;;10.27;;
70420;SDS011;57848;51.938;15.520;2023-02-28T05:56:59;25.60;;;9.90;;
70420;SDS011;57848;51.938;15.520;2023-02-28T05:59:24;30.83;;;10.73;;
70420;SDS011;57848;51.938;15.520;2023-02-28T06:01:50;28.38;;;10.70;;
70420;SDS011;57848;51.938;15.520;2023-02-28T06:04:17;26.13;;;9.47;;
70420;SDS011;57848;51.938;15.520;2023-02-28T06:06:44;25.35;;;9.32;;
70420;SDS011;57848;51.938;15.520;2023-02-28T06:09:10;30.83;;;11.25;;
70420;SDS011;57848;51.938;15.520;2023-02-28T06:11:36;27.10;;;10.40;;
70420;SDS011;57848;51.938;15.520;2023-02-28T06:14:02;30.77;;;10.97;;
70420;SDS011;57848;51.938;15.520;2023-02-28T06:16:30;29.67;;;11.63;;
70420;SDS011;57848;51.938;15.520;2023-02-28T06:18:57;29.07;;;10.30;;
70420;SDS011;57848;51.938;15.520;2023-02-28T06:21:23;25.90;;;9.68;;
70420;SDS011;57848;51.938;15.520;2023-02-28T06:23:49;26.95;;;10.75;;
70420;SDS011;57848;51.938;15.520;2023-02-28T06:26:15;27.93;;;10.57;;
70420;SDS011;57848;51.938;15.520;2023-02-28T06:28:41;24.95;;;9.63;;
70420;SDS011;57848;51.938;15.520;2023-02-28T06:31:11;23.43;;;9.17;;
70420;SDS011;57848;51.938;15.520;2023-02-28T06:33:38;23.20;;;8.45;;
70420;SDS011;57848;51.938;15.520;2023-02-28T06:36:05;24.13;;;9.48;;
70420;SDS011;57848;51.938;15.520;2023-02-28T06:38:32;25.02;;;9.70;;
70420;SDS011;57848;51.938;15.520;2023-02-28T06:40:58;23.63;;;9.00;;
70420;SDS011;57848;51.938;15.520;2023-02-28T06:43:28;20.23;;;9.33;;
70420;SDS011;57848;51.938;15.520;2023-02-28T06:45:55;29.75;;;10.93;;
70420;SDS011;57848;51.938;15.520;2023-02-28T06:48:21;31.63;;;11.50;;
70420;SDS011;57848;51.938;15.520;2023-02-28T06:50:47;28.37;;;10.60;;
70420;SDS011;57848;51.938;15.520;2023-02-28T06:53:12;27.43;;;10.20;;
70420;SDS011;57848;51.938;15.520;2023-02-28T06:58:13;30.17;;;11.05;;
70420;SDS011;57848;51.938;15.520;2023-02-28T07:00:43;30.13;;;10.93;;
70420;SDS011;57848;51.938;15.520;2023-02-28T07:03:10;25.73;;;9.70;;
70420;SDS011;57848;51.938;15.520;2023-02-28T07:05:36;31.20;;;10.52;;
70420;SDS011;57848;51.938;15.520;2023-02-28T07:08:02;26.80;;;9.63;;
70420;SDS011;57848;51.938;15.520;2023-02-28T07:10:29;24.40;;;9.45;;
70420;SDS011;57848;51.938;15.520;2023-02-28T07:12:55;25.73;;;9.53;;
70420;SDS011;57848;51.938;15.520;2023-02-28T07:15:20;25.48;;;8.43;;
70420;SDS011;57848;51.938;15.520;2023-02-28T07:17:45;23.00;;;8.83;;
70420;SDS011;57848;51.938;15.520;2023-02-28T07:20:11;21.37;;;8.43;;
70420;SDS011;57848;51.938;15.520;2023-02-28T07:22:37;29.77;;;10.43;;
70420;SDS011;57848;51.938;15.520;2023-02-28T07:25:03;23.90;;;9.45;;
70420;SDS011;57848;51.938;15.520;2023-02-28T07:27:29;21.00;;;8.10;;
70420;SDS011;57848;51.938;15.520;2023-02-28T07:29:55;21.02;;;8.50;;
70420;SDS011;57848;51.938;15.520;2023-02-28T07:32:21;21.20;;;7.20;;
70420;SDS011;57848;51.938;15.520;2023-02-28T07:34:47;35.95;;;12.05;;
70420;SDS011;57848;51.938;15.520;2023-02-28T07:37:13;30.90;;;12.27;;
70420;SDS011;57848;51.938;15.520;2023-02-28T07:39:39;24.13;;;10.15;;
70420;SDS011;57848;51.938;15.520;2023-02-28T07:42:07;25.15;;;10.85;;
70420;SDS011;57848;51.938;15.520;2023-02-28T07:44:35;24.08;;;9.20;;
70420;SDS011;57848;51.938;15.520;2023-02-28T07:47:05;23.60;;;10.00;;
70420;SDS011;57848;51.938;15.520;2023-02-28T07:49:34;22.47;;;8.13;;
70420;SDS011;57848;51.938;15.520;2023-02-28T07:52:01;20.98;;;8.45;;
70420;SDS011;57848;51.938;15.520;2023-02-28T07:54:27;19.73;;;8.38;;
70420;SDS011;57848;51.938;15.520;2023-02-28T07:56:52;21.53;;;8.67;;
70420;SDS011;57848;51.938;15.520;2023-02-28T07:59:18;22.73;;;8.90;;
70420;SDS011;57848;51.938;15.520;2023-02-28T08:01:43;25.50;;;9.15;;
70420;SDS011;57848;51.938;15.520;2023-02-28T08:04:09;21.27;;;8.00;;
70420;SDS011;57848;51.938;15.520;2023-02-28T08:06:35;21.48;;;8.05;;
70420;SDS011;57848;51.938;15.520;2023-02-28T08:11:42;23.23;;;8.65;;
70420;SDS011;57848;51.938;15.520;2023-02-28T08:14:07;25.47;;;7.80;;
70420;SDS011;57848;51.938;15.520;2023-02-28T08:16:33;20.40;;;7.13;;
70420;SDS011;57848;51.938;15.520;2023-02-28T08:18:58;18.53;;;6.60;;
70420;SDS011;57848;51.938;15.520;2023-02-28T08:21:23;22.27;;;8.13;;
70420;SDS011;57848;51.938;15.520;2023-02-28T08:23:49;22.20;;;8.25;;
70420;SDS011;57848;51.938;15.520;2023-02-28T08:26:16;18.40;;;6.03;;
70420;SDS011;57848;51.938;15.520;2023-02-28T08:28:42;16.67;;;6.38;;
70420;SDS011;57848;51.938;15.520;2023-02-28T08:31:08;22.30;;;5.87;;
70420;SDS011;57848;51.938;15.520;2023-02-28T08:33:36;13.52;;;4.90;;
70420;SDS011;57848;51.938;15.520;2023-02-28T08:36:04;14.15;;;5.00;;
70420;SDS011;57848;51.938;15.520;2023-02-28T08:38:30;13.63;;;5.35;;
70420;SDS011;57848;51.938;15.520;2023-02-28T08:40:59;13.17;;;5.60;;
70420;SDS011;57848;51.938;15.520;2023-02-28T08:43:27;17.35;;;4.40;;
70420;SDS011;57848;51.938;15.520;2023-02-28T08:45:53;14.30;;;4.32;;
70420;SDS011;57848;51.938;15.520;2023-02-28T08:48:19;11.93;;;4.30;;
70420;SDS011;57848;51.938;15.520;2023-02-28T08:50:53;11.37;;;3.90;;
70420;SDS011;57848;51.938;15.520;2023-02-28T08:53:20;9.35;;;3.30;;
70420;SDS011;57848;51.938;15.520;2023-02-28T08:55:45;8.23;;;2.40;;
70420;SDS011;57848;51.938;15.520;2023-02-28T08:58:11;9.13;;;2.78;;
70420;SDS011;57848;51.938;15.520;2023-02-28T09:00:36;11.23;;;4.20;;
70420;SDS011;57848;51.938;15.520;2023-02-28T09:03:01;8.63;;;2.57;;
70420;SDS011;57848;51.938;15.520;2023-02-28T09:05:27;9.20;;;3.00;;
70420;SDS011;57848;51.938;15.520;2023-02-28T09:07:54;9.15;;;2.60;;
70420;SDS011;57848;51.938;15.520;2023-02-28T09:10:19;8.87;;;2.80;;
70420;SDS011;57848;51.938;15.520;2023-02-28T09:12:44;10.53;;;2.97;;
70420;SDS011;57848;51.938;15.520;2023-02-28T09:15:12;11.63;;;3.78;;
70420;SDS011;57848;51.938;15.520;2023-02-28T09:17:37;9.20;;;2.90;;
70420;SDS011;57848;51.938;15.520;2023-02-28T09:20:03;8.50;;;2.77;;
70420;SDS011;57848;51.938;15.520;2023-02-28T09:22:30;7.63;;;2.30;;
70420;SDS011;57848;51.938;15.520;2023-02-28T09:24:55;9.70;;;3.50;;
70420;SDS011;57848;51.938;15.520;2023-02-28T09:27:21;10.43;;;3.00;;
70420;SDS011;57848;51.938;15.520;2023-02-28T09:29:46;9.65;;;3.53;;
70420;SDS011;57848;51.938;15.520;2023-02-28T09:32:11;9.87;;;3.53;;
70420;SDS011;57848;51.938;15.520;2023-02-28T09:34:37;11.50;;;3.83;;
70420;SDS011;57848;51.938;15.520;2023-02-28T09:37:04;9.18;;;3.53;;
70420;SDS011;57848;51.938;15.520;2023-02-28T09:39:29;10.60;;;3.17;;
70420;SDS011;57848;51.938;15.520;2023-02-28T09:41:55;12.40;;;3.73;;
70420;SDS011;57848;51.938;15.520;2023-02-28T09:44:28;11.95;;;3.90;;
70420;SDS011;57848;51.938;15.520;2023-02-28T09:46:56;10.45;;;3.00;;
70420;SDS011;57848;51.938;15.520;2023-02-28T09:49:28;11.15;;;3.03;;
70420;SDS011;57848;51.938;15.520;2023-02-28T09:52:04;14.00;;;3.28;;
70420;SDS011;57848;51.938;15.520;2023-02-28T09:54:34;8.83;;;3.10;;
70420;SDS011;57848;51.938;15.520;2023-02-28T09:59:32;8.57;;;3.17;;
70420;SDS011;57848;51.938;15.520;2023-02-28T10:05:14;8.38;;;3.08;;
70420;SDS011;57848;51.938;15.520;2023-02-28T10:08:29;11.73;;;3.70;;
70420;SDS011;57848;51.938;15.520;2023-02-28T10:10:36;12.02;;;4.30;;
70420;SDS011;57848;51.938;15.520;2023-02-28T10:13:06;11.23;;;4.20;;
70420;SDS011;57848;51.938;15.520;2023-02-28T10:15:39;13.98;;;5.60;;
70420;SDS011;57848;51.938;15.520;2023-02-28T10:18:09;14.18;;;4.30;;
70420;SDS011;57848;51.938;15.520;2023-02-28T10:20:38;8.67;;;3.80;;
70420;SDS011;57848;51.938;15.520;2023-02-28T10:25:52;10.82;;;3.85;;
70420;SDS011;57848;51.938;15.520;2023-02-28T10:28:20;12.18;;;4.03;;
70420;SDS011;57848;51.938;15.520;2023-02-28T10:30:49;10.67;;;4.10;;
70420;SDS011;57848;51.938;15.520;2023-02-28T10:33:21;9.43;;;3.97;;
70420;SDS011;57848;51.938;15.520;2023-02-28T10:36:00;10.57;;;4.00;;
70420;SDS011;57848;51.938;15.520;2023-02-28T10:38:34;11.53;;;4.10;;
70420;SDS011;57848;51.938;15.520;2023-02-28T10:41:10;14.07;;;5.13;;
70420;SDS011;57848;51.938;15.520;2023-02-28T10:43:38;11.75;;;4.20;;
70420;SDS011;57848;51.938;15.520;2023-02-28T10:46:11;17.02;;;5.95;;
70420;SDS011;57848;51.938;15.520;2023-02-28T10:48:41;13.98;;;5.00;;
70420;SDS011;57848;51.938;15.520;2023-02-28T10:51:13;13.43;;;5.63;;
70420;SDS011;57848;51.938;15.520;2023-02-28T10:58:42;13.83;;;5.67;;
70420;SDS011;57848;51.938;15.520;2023-02-28T11:01:20;14.13;;;5.35;;
70420;SDS011;57848;51.938;15.520;2023-02-28T11:04:01;11.75;;;4.28;;
70420;SDS011;57848;51.938;15.520;2023-02-28T11:06:31;12.45;;;5.15;;
70420;SDS011;57848;51.938;15.520;2023-02-28T11:08:59;12.00;;;5.30;;
70420;SDS011;57848;51.938;15.520;2023-02-28T11:11:28;13.57;;;6.28;;
70420;SDS011;57848;51.938;15.520;2023-02-28T11:13:57;11.63;;;4.30;;
70420;SDS011;57848;51.938;15.520;2023-02-28T11:16:42;13.18;;;4.57;;
70420;SDS011;57848;51.938;15.520;2023-02-28T11:19:15;11.63;;;4.37;;
70420;SDS011;57848;51.938;15.520;2023-02-28T11:21:48;10.05;;;3.80;;
70420;SDS011;57848;51.938;15.520;2023-02-28T11:24:31;10.68;;;4.03;;
70420;SDS011;57848;51.938;15.520;2023-02-28T11:27:01;11.55;;;4.30;;
70420;SDS011;57848;51.938;15.520;2023-02-28T11:29:31;10.77;;;4.70;;
70420;SDS011;57848;51.938;15.520;2023-02-28T11:34:47;11.00;;;4.25;;
70420;SDS011;57848;51.938;15.520;2023-02-28T11:37:27;10.82;;;4.93;;
70420;SDS011;57848;51.938;15.520;2023-02-28T11:39:53;12.37;;;5.73;;
70420;SDS011;57848;51.938;15.520;2023-02-28T11:45:35;11.27;;;4.40;;
70420;SDS011;57848;51.938;15.520;2023-02-28T11:57:03;12.68;;;4.85;;
70420;SDS011;57848;51.938;15.520;2023-02-28T12:04:25;11.57;;;4.47;;
70420;SDS011;57848;51.938;15.520;2023-02-28T12:10:24;11.85;;;4.90;;
70420;SDS011;57848;51.938;15.520;2023-02-28T12:15:51;11.32;;;4.32;;
70420;SDS011;57848;51.938;15.520;2023-02-28T12:18:47;10.95;;;4.85;;
70420;SDS011;57848;51.938;15.520;2023-02-28T12:24:39;11.43;;;4.82;;
70420;SDS011;57848;51.938;15.520;2023-02-28T12:27:33;12.45;;;4.40;;
70420;SDS011;57848;51.938;15.520;2023-02-28T12:30:17;13.15;;;5.72;;
70420;SDS011;57848;51.938;15.520;2023-02-28T12:32:48;10.90;;;4.63;;
70420;SDS011;57848;51.938;15.520;2023-02-28T12:35:23;12.10;;;5.53;;
70420;SDS011;57848;51.938;15.520;2023-02-28T12:37:56;13.90;;;5.40;;
70420;SDS011;57848;51.938;15.520;2023-02-28T12:40:27;15.25;;;5.35;;
70420;SDS011;57848;51.938;15.520;2023-02-28T12:42:59;11.68;;;4.20;;
70420;SDS011;57848;51.938;15.520;2023-02-28T12:48:04;10.33;;;5.00;;
70420;SDS011;57848;51.938;15.520;2023-02-28T12:50:33;12.00;;;4.55;;
70420;SDS011;57848;51.938;15.520;2023-02-28T12:53:00;11.30;;;5.28;;
70420;SDS011;57848;51.938;15.520;2023-02-28T12:58:34;10.27;;;4.30;;
70420;SDS011;57848;51.938;15.520;2023-02-28T13:01:18;12.33;;;4.47;;
70420;SDS011;57848;51.938;15.520;2023-02-28T13:04:22;11.85;;;4.55;;
70420;SDS011;57848;51.938;15.520;2023-02-28T13:09:53;11.63;;;4.07;;
70420;SDS011;57848;51.938;15.520;2023-02-28T13:12:20;10.48;;;4.43;;
70420;SDS011;57848;51.938;15.520;2023-02-28T13:14:48;10.57;;;3.97;;
70420;SDS011;57848;51.938;15.520;2023-02-28T13:17:21;11.00;;;4.85;;
70420;SDS011;57848;51.938;15.520;2023-02-28T13:24:51;11.27;;;4.13;;
70420;SDS011;57848;51.938;15.520;2023-02-28T13:29:51;11.10;;;3.83;;
70420;SDS011;57848;51.938;15.520;2023-02-28T13:32:28;10.52;;;3.92;;
70420;SDS011;57848;51.938;15.520;2023-02-28T13:42:51;13.23;;;3.93;;
70420;SDS011;57848;51.938;15.520;2023-02-28T13:47:58;10.65;;;3.35;;
70420;SDS011;57848;51.938;15.520;2023-02-28T13:58:25;11.82;;;4.10;;
70420;SDS011;57848;51.938;15.520;2023-02-28T14:03:58;10.20;;;3.25;;
70420;SDS011;57848;51.938;15.520;2023-02-28T14:06:55;9.87;;;3.00;;
70420;SDS011;57848;51.938;15.520;2023-02-28T14:09:27;10.13;;;3.90;;
70420;SDS011;57848;51.938;15.520;2023-02-28T14:11:55;11.43;;;4.53;;
70420;SDS011;57848;51.938;15.520;2023-02-28T14:17:05;7.97;;;2.90;;
70420;SDS011;57848;51.938;15.520;2023-02-28T14:19:33;13.38;;;4.90;;
70420;SDS011;57848;51.938;15.520;2023-02-28T14:27:42;11.23;;;5.28;;
70420;SDS011;57848;51.938;15.520;2023-02-28T14:33:35;9.25;;;3.70;;
70420;SDS011;57848;51.938;15.520;2023-02-28T14:36:26;11.63;;;3.80;;
70420;SDS011;57848;51.938;15.520;2023-02-28T14:39:00;10.70;;;3.40;;
70420;SDS011;57848;51.938;15.520;2023-02-28T14:44:00;10.80;;;4.27;;
70420;SDS011;57848;51.938;15.520;2023-02-28T14:46:30;12.25;;;4.13;;
70420;SDS011;57848;51.938;15.520;2023-02-28T14:49:06;9.38;;;3.67;;
70420;SDS011;57848;51.938;15.520;2023-02-28T14:51:36;10.50;;;3.95;;
70420;SDS011;57848;51.938;15.520;2023-02-28T14:54:02;11.03;;;4.60;;
70420;SDS011;57848;51.938;15.520;2023-02-28T14:56:34;9.93;;;3.47;;
70420;SDS011;57848;51.938;15.520;2023-02-28T14:59:03;22.55;;;8.82;;
70420;SDS011;57848;51.938;15.520;2023-02-28T15:01:30;12.77;;;4.65;;
70420;SDS011;57848;51.938;15.520;2023-02-28T15:03:59;12.40;;;4.27;;
70420;SDS011;57848;51.938;15.520;2023-02-28T15:06:29;13.07;;;5.43;;
70420;SDS011;57848;51.938;15.520;2023-02-28T15:09:08;9.07;;;4.10;;
70420;SDS011;57848;51.938;15.520;2023-02-28T15:11:35;9.25;;;3.20;;
70420;SDS011;57848;51.938;15.520;2023-02-28T15:14:03;12.63;;;3.58;;
70420;SDS011;57848;51.938;15.520;2023-02-28T15:16:31;9.63;;;3.97;;
70420;SDS011;57848;51.938;15.520;2023-02-28T15:19:02;11.65;;;3.72;;
70420;SDS011;57848;51.938;15.520;2023-02-28T15:21:33;11.02;;;4.00;;
70420;SDS011;57848;51.938;15.520;2023-02-28T15:24:03;10.18;;;3.80;;
70420;SDS011;57848;51.938;15.520;2023-02-28T15:26:33;11.37;;;4.57;;
70420;SDS011;57848;51.938;15.520;2023-02-28T15:29:13;10.63;;;4.35;;
70420;SDS011;57848;51.938;15.520;2023-02-28T15:31:49;14.93;;;4.60;;
70420;SDS011;57848;51.938;15.520;2023-02-28T15:36:58;14.73;;;7.72;;
70420;SDS011;57848;51.938;15.520;2023-02-28T15:39:25;15.43;;;6.73;;
70420;SDS011;57848;51.938;15.520;2023-02-28T15:41:52;13.85;;;6.45;;
70420;SDS011;57848;51.938;15.520;2023-02-28T15:44:34;15.97;;;8.63;;
70420;SDS011;57848;51.938;15.520;2023-02-28T15:49:27;11.33;;;4.90;;
70420;SDS011;57848;51.938;15.520;2023-02-28T15:51:53;14.75;;;5.35;;
70420;SDS011;57848;51.938;15.520;2023-02-28T15:54:24;14.23;;;6.28;;
70420;SDS011;57848;51.938;15.520;2023-02-28T15:56:55;14.35;;;5.50;;
70420;SDS011;57848;51.938;15.520;2023-02-28T15:59:26;15.05;;;4.97;;
70420;SDS011;57848;51.938;15.520;2023-02-28T16:07:27;12.93;;;5.70;;
70420;SDS011;57848;51.938;15.520;2023-02-28T16:09:54;12.52;;;5.63;;
70420;SDS011;57848;51.938;15.520;2023-02-28T16:12:20;17.48;;;5.70;;
70420;SDS011;57848;51.938;15.520;2023-02-28T16:14:51;17.53;;;5.93;;
70420;SDS011;57848;51.938;15.520;2023-02-28T16:17:22;14.65;;;6.20;;
70420;SDS011;57848;51.938;15.520;2023-02-28T16:19:50;17.02;;;6.82;;
70420;SDS011;57848;51.938;15.520;2023-02-28T16:22:15;19.23;;;7.33;;
70420;SDS011;57848;51.938;15.520;2023-02-28T16:24:41;19.23;;;6.95;;
70420;SDS011;57848;51.938;15.520;2023-02-28T16:27:06;19.27;;;7.47;;
70420;SDS011;57848;51.938;15.520;2023-02-28T16:29:41;18.35;;;7.65;;
70420;SDS011;57848;51.938;15.520;2023-02-28T16:32:06;18.57;;;7.53;;
70420;SDS011;57848;51.938;15.520;2023-02-28T16:34:32;16.50;;;7.13;;
70420;SDS011;57848;51.938;15.520;2023-02-28T16:36:57;19.00;;;7.07;;
70420;SDS011;57848;51.938;15.520;2023-02-28T16:39:23;20.87;;;6.90;;
70420;SDS011;57848;51.938;15.520;2023-02-28T16:41:49;23.80;;;8.20;;
70420;SDS011;57848;51.938;15.520;2023-02-28T16:44:21;18.17;;;6.43;;
70420;SDS011;57848;51.938;15.520;2023-02-28T16:46:49;16.52;;;5.85;;
70420;SDS011;57848;51.938;15.520;2023-02-28T16:49:14;13.57;;;6.07;;
70420;SDS011;57848;51.938;15.520;2023-02-28T16:51:40;23.47;;;9.13;;
70420;SDS011;57848;51.938;15.520;2023-02-28T16:54:05;22.30;;;10.83;;
70420;SDS011;57848;51.938;15.520;2023-02-28T16:56:31;26.90;;;11.73;;